createdAt,value
2023-05-02T00:01:26.187Z,98206.03
2023-05-02T00:03:29.346Z,98195.88
2023-05-02T00:05:32.554Z,98197.88
2023-05-02T00:07:35.901Z,98201.66
2023-05-02T00:09:40.357Z,98199.97
2023-05-02T00:11:43.600Z,98205.41
2023-05-02T00:13:46.686Z,98205.28
2023-05-02T00:15:49.748Z,98210.63
2023-05-02T00:17:52.906Z,98214.41
2023-05-02T00:19:55.969Z,98210.22
2023-05-02T00:21:58.976Z,98208.47
2023-05-02T00:24:01.982Z,98209.28
2023-05-02T00:26:09.956Z,98216.19
2023-05-02T00:28:16.761Z,98209.19
2023-05-02T00:30:21.099Z,98211.28
2023-05-02T00:32:24.383Z,98207.22
2023-05-02T00:34:30.710Z,98205.84
2023-05-02T00:36:33.830Z,98198.31
2023-05-02T00:38:36.924Z,98202.94
2023-05-02T00:40:46.849Z,98202.31
2023-05-02T00:42:51.637Z,98204.16
2023-05-02T00:44:55.199Z,98204.28
2023-05-02T00:46:58.652Z,98205.97
2023-05-02T00:49:02.104Z,98199.06
2023-05-02T00:51:06.462Z,98204.38
2023-05-02T00:53:10.094Z,98201.03
2023-05-02T00:55:13.208Z,98207.19
2023-05-02T00:57:16.456Z,98204.59
2023-05-02T00:59:20.964Z,98212.50
2023-05-02T01:01:31.460Z,98206.69
2023-05-02T01:03:41.421Z,98204.19
2023-05-02T01:05:49.187Z,98206.06
2023-05-02T01:08:03.064Z,98208.78
2023-05-02T01:10:15.510Z,98203.75
2023-05-02T01:12:26.390Z,98206.56
2023-05-02T01:14:31.202Z,98210.13
2023-05-02T01:16:37.139Z,98213.69
2023-05-02T01:18:43.339Z,98208.56
2023-05-02T01:20:47.875Z,98207.09
2023-05-02T01:22:51.161Z,98220.22
2023-05-02T01:25:03.015Z,98213.53
2023-05-02T01:27:14.708Z,98221.47
2023-05-02T01:29:19.621Z,98220.75
2023-05-02T01:31:23.615Z,98222.81
2023-05-02T01:33:28.309Z,98224.69
2023-05-02T01:35:32.087Z,98230.00
2023-05-02T01:37:37.878Z,98227.63
2023-05-02T01:39:41.478Z,98231.16
2023-05-02T01:41:44.987Z,98225.94
2023-05-02T01:43:48.901Z,98229.56
2023-05-02T01:45:54.259Z,98225.22
2023-05-02T01:47:57.786Z,98223.63
2023-05-02T01:50:01.508Z,98233.25
2023-05-02T01:52:06.621Z,98232.47
2023-05-02T01:54:10.342Z,98236.03
2023-05-02T01:56:13.832Z,98231.13
2023-05-02T01:58:18.430Z,98240.19
2023-05-02T02:00:23.219Z,98236.94
2023-05-02T02:02:29.043Z,98240.56
2023-05-02T02:04:33.018Z,98235.56
2023-05-02T02:06:36.312Z,98245.16
2023-05-02T02:08:39.449Z,98238.16
2023-05-02T02:10:46.798Z,98237.25
2023-05-02T02:12:53.628Z,98231.25
2023-05-02T02:14:58.525Z,98235.75
2023-05-02T02:17:03.687Z,98239.38
2023-05-02T02:19:11.436Z,98242.19
2023-05-02T02:21:18.435Z,98245.75
2023-05-02T02:23:23.394Z,98245.84
2023-05-02T02:25:26.985Z,98251.06
2023-05-02T02:27:30.298Z,98260.75
2023-05-02T02:29:33.762Z,98259.06
2023-05-02T02:31:39.114Z,98269.50
2023-05-02T02:33:42.441Z,98272.19
2023-05-02T02:35:56.662Z,98273.97
2023-05-02T02:38:06.424Z,98274.44
2023-05-02T02:40:13.960Z,98274.84
2023-05-02T02:42:20.421Z,98275.00
2023-05-02T02:44:28.959Z,98280.41
2023-05-02T02:46:46.078Z,98275.56
2023-05-02T02:48:54.789Z,98281.78
2023-05-02T02:51:09.187Z,98287.09
2023-05-02T02:53:18.357Z,98293.31
2023-05-02T02:55:38.504Z,98293.53
2023-05-02T02:57:47.973Z,98296.16
2023-05-02T02:59:56.818Z,98299.47
2023-05-02T03:02:05.334Z,98307.38
2023-05-02T03:04:10.083Z,98304.06
2023-05-02T03:06:14.694Z,98309.44
2023-05-02T03:08:17.945Z,98315.47
2023-05-02T03:10:23.282Z,98313.97
2023-05-02T03:12:26.515Z,98311.66
2023-05-02T03:14:29.615Z,98317.63
2023-05-02T03:16:35.888Z,98319.38
2023-05-02T03:18:41.990Z,98331.75
2023-05-02T03:20:45.195Z,98319.09
2023-05-02T03:22:49.626Z,98322.00
2023-05-02T03:24:53.287Z,98325.50
2023-05-02T03:26:57.170Z,98322.91
2023-05-02T03:29:03.659Z,98324.88
2023-05-02T03:31:12.239Z,98332.78
2023-05-02T03:33:16.571Z,98340.47
2023-05-02T03:35:21.228Z,98338.72
2023-05-02T03:37:26.192Z,98339.47
2023-05-02T03:39:31.284Z,98336.88
2023-05-02T03:41:34.655Z,98341.91
2023-05-02T03:43:42.999Z,98338.34
2023-05-02T03:45:47.628Z,98344.41
2023-05-02T03:47:52.251Z,98347.75
2023-05-02T03:49:55.483Z,98354.38
2023-05-02T03:51:58.660Z,98355.91
2023-05-02T03:54:07.583Z,98355.84
2023-05-02T03:56:12.707Z,98355.56
2023-05-02T03:58:25.250Z,98367.75
2023-05-02T04:00:28.634Z,98362.53
2023-05-02T04:02:38.514Z,98367.66
2023-05-02T04:04:45.060Z,98372.78
2023-05-02T04:06:51.364Z,98378.63
2023-05-02T04:08:54.544Z,98377.78
2023-05-02T04:10:57.978Z,98372.59
2023-05-02T04:13:03.160Z,98383.00
2023-05-02T04:15:08.021Z,98378.53
2023-05-02T04:17:11.188Z,98379.38
2023-05-02T04:19:21.830Z,98386.34
2023-05-02T04:21:25.306Z,98385.50
2023-05-02T04:23:28.660Z,98391.56
2023-05-02T04:25:35.738Z,98392.50
2023-05-02T04:27:40.243Z,98403.66
2023-05-02T04:29:50.951Z,98397.72
2023-05-02T04:31:55.426Z,98395.94
2023-05-02T04:34:01.654Z,98402.81
2023-05-02T04:36:10.941Z,98399.28
2023-05-02T04:38:17.668Z,98404.38
2023-05-02T04:40:21.992Z,98406.16
2023-05-02T04:42:29.937Z,98406.16
2023-05-02T04:44:44.822Z,98404.47
2023-05-02T04:46:49.650Z,98408.69
2023-05-02T04:48:52.849Z,98418.06
2023-05-02T04:50:56.117Z,98420.56
2023-05-02T04:52:59.319Z,98413.63
2023-05-02T04:55:03.212Z,98413.53
2023-05-02T04:57:08.054Z,98414.44
2023-05-02T04:59:13.759Z,98413.34
2023-05-02T05:01:17.151Z,98414.81
2023-05-02T05:03:24.717Z,98428.06
2023-05-02T05:05:28.294Z,98422.31
2023-05-02T05:07:32.165Z,98427.13
2023-05-02T05:09:35.520Z,98430.31
2023-05-02T05:11:39.497Z,98430.75
2023-05-02T05:13:44.300Z,98438.56
2023-05-02T05:15:49.322Z,98444.22
2023-05-02T05:17:54.367Z,98444.81
2023-05-02T05:19:59.150Z,98450.47
2023-05-02T05:22:03.414Z,98456.97
2023-05-02T05:24:08.222Z,98465.66
2023-05-02T05:26:12.393Z,98471.78
2023-05-02T05:28:18.485Z,98477.94
2023-05-02T05:30:22.103Z,98482.41
2023-05-02T05:32:26.022Z,98485.00
2023-05-02T05:34:29.824Z,98487.63
2023-05-02T05:36:38.476Z,98486.69
2023-05-02T05:38:41.946Z,98503.06
2023-05-02T05:40:46.295Z,98503.81
2023-05-02T05:42:49.476Z,98504.47
2023-05-02T05:44:59.267Z,98507.53
2023-05-02T05:47:03.211Z,98509.13
2023-05-02T05:49:06.634Z,98507.06
2023-05-02T05:51:10.790Z,98504.16
2023-05-02T05:53:15.705Z,98513.31
2023-05-02T05:55:20.285Z,98516.44
2023-05-02T05:57:23.888Z,98517.91
2023-05-02T05:59:27.556Z,98517.19
2023-05-02T06:01:31.441Z,98521.28
2023-05-02T06:03:35.161Z,98526.66
2023-05-02T06:05:38.356Z,98528.78
2023-05-02T06:07:41.456Z,98531.19
2023-05-02T06:09:45.976Z,98532.41
2023-05-02T06:11:50.047Z,98527.53
2023-05-02T06:13:53.822Z,98528.88
2023-05-02T06:16:01.901Z,98526.94
2023-05-02T06:18:06.299Z,98536.97
2023-05-02T06:20:10.400Z,98535.66
2023-05-02T06:22:14.077Z,98544.78
2023-05-02T06:24:17.155Z,98549.41
2023-05-02T06:26:21.649Z,98555.91
2023-05-02T06:28:24.686Z,98553.63
2023-05-02T06:30:28.524Z,98562.72
2023-05-02T06:32:32.093Z,98563.91
2023-05-02T06:34:35.182Z,98557.34
2023-05-02T06:36:38.264Z,98567.25
2023-05-02T06:38:41.710Z,98570.22
2023-05-02T06:40:45.808Z,98574.09
2023-05-02T06:42:50.177Z,98577.03
2023-05-02T06:44:53.249Z,98577.34
2023-05-02T06:46:56.492Z,98588.03
2023-05-02T06:48:59.566Z,98588.31
2023-05-02T06:51:04.174Z,98590.53
2023-05-02T06:53:07.316Z,98589.38
2023-05-02T06:55:10.797Z,98599.63
2023-05-02T06:57:13.910Z,98607.91
2023-05-02T06:59:18.396Z,98607.41
2023-05-02T07:01:21.479Z,98607.81
2023-05-02T07:03:24.964Z,98604.75
2023-05-02T07:05:28.167Z,98604.56
2023-05-02T07:07:31.541Z,98601.59
2023-05-02T07:09:35.111Z,98609.03
2023-05-02T07:11:38.171Z,98607.88
2023-05-02T07:13:41.263Z,98611.22
2023-05-02T07:15:45.739Z,98617.84
2023-05-02T07:17:49.659Z,98614.03
2023-05-02T07:19:52.906Z,98614.56
2023-05-02T07:21:56.031Z,98626.59
2023-05-02T07:23:59.218Z,98621.25
2023-05-02T07:26:03.867Z,98626.16
2023-05-02T07:28:09.053Z,98630.25
2023-05-02T07:30:13.221Z,98634.44
2023-05-02T07:32:17.761Z,98623.75
2023-05-02T07:34:20.891Z,98633.03
2023-05-02T07:36:24.045Z,98632.09
2023-05-02T07:38:28.614Z,98635.31
2023-05-02T07:40:31.619Z,98634.06
2023-05-02T07:42:34.985Z,98638.34
2023-05-02T07:44:38.040Z,98632.88
2023-05-02T07:46:41.278Z,98631.00
2023-05-02T07:48:45.930Z,98641.03
2023-05-02T07:50:48.990Z,98643.34
2023-05-02T07:52:52.246Z,98637.13
2023-05-02T07:54:55.591Z,98654.44
2023-05-02T07:57:02.386Z,98647.28
2023-05-02T07:59:05.770Z,98647.06
2023-05-02T08:01:08.937Z,98653.44
2023-05-02T08:03:12.116Z,98657.06
2023-05-02T08:05:16.944Z,98658.19
2023-05-02T08:07:20.115Z,98657.84
2023-05-02T08:09:23.172Z,98662.66
2023-05-02T08:11:26.453Z,98656.97
2023-05-02T08:13:29.593Z,98660.81
2023-05-02T08:15:32.593Z,98661.63
2023-05-02T08:17:35.652Z,98664.88
2023-05-02T08:19:38.797Z,98670.47
2023-05-02T08:21:43.401Z,98670.03
2023-05-02T08:23:46.599Z,98673.75
2023-05-02T08:25:49.613Z,98676.63
2023-05-02T08:27:52.754Z,98677.84
2023-05-02T08:29:57.387Z,98681.78
2023-05-02T08:32:01.774Z,98674.31
2023-05-02T08:34:04.912Z,98670.59
2023-05-02T08:36:14.617Z,98684.81
2023-05-02T08:38:19.026Z,98679.81
2023-05-02T08:40:33.926Z,98686.31
2023-05-02T08:42:45.007Z,98695.38
2023-05-02T08:44:48.191Z,98699.91
2023-05-02T08:46:52.220Z,98692.63
2023-05-02T08:48:55.465Z,98690.97
2023-05-02T08:50:58.831Z,98703.28
2023-05-02T08:53:01.990Z,98699.31
2023-05-02T08:55:08.463Z,98702.06
2023-05-02T08:57:11.531Z,98695.97
2023-05-02T08:59:14.947Z,98702.66
2023-05-02T09:01:21.408Z,98706.34
2023-05-02T09:03:30.378Z,98702.81
2023-05-02T09:05:35.187Z,98706.41
2023-05-02T09:07:45.634Z,98709.97
2023-05-02T09:09:48.808Z,98699.03
2023-05-02T09:11:53.866Z,98703.78
2023-05-02T09:13:58.864Z,98700.78
2023-05-02T09:16:03.362Z,98704.75
2023-05-02T09:18:07.347Z,98708.03
2023-05-02T09:20:12.557Z,98703.03
2023-05-02T09:22:23.956Z,98705.06
2023-05-02T09:24:27.160Z,98695.66
2023-05-02T09:26:32.754Z,98691.28
2023-05-02T09:28:42.104Z,98698.91
2023-05-02T09:30:45.266Z,98704.13
2023-05-02T09:32:51.205Z,98708.81
2023-05-02T09:35:07.068Z,98715.97
2023-05-02T09:37:12.601Z,98709.22
2023-05-02T09:39:17.606Z,98710.78
2023-05-02T09:41:22.173Z,98710.56
2023-05-02T09:43:25.401Z,98709.78
2023-05-02T09:45:29.803Z,98716.75
2023-05-02T09:47:32.803Z,98708.69
2023-05-02T09:49:41.173Z,98700.66
2023-05-02T09:51:44.786Z,98703.09
2023-05-02T09:53:48.192Z,98702.00
2023-05-02T09:56:01.022Z,98713.84
2023-05-02T09:58:04.326Z,98702.16
2023-05-02T10:00:09.591Z,98711.06
2023-05-02T10:02:17.468Z,98703.97
2023-05-02T10:04:21.160Z,98707.31
2023-05-02T10:06:24.714Z,98714.56
2023-05-02T10:08:28.850Z,98710.34
2023-05-02T10:10:34.755Z,98703.81
2023-05-02T10:12:39.128Z,98706.44
2023-05-02T10:14:42.504Z,98716.16
2023-05-02T10:16:56.995Z,98716.94
2023-05-02T10:19:05.174Z,98716.38
2023-05-02T10:21:11.867Z,98707.97
2023-05-02T10:23:15.947Z,98708.50
2023-05-02T10:25:19.260Z,98717.66
2023-05-02T10:27:22.445Z,98711.94
2023-05-02T10:29:25.466Z,98711.22
2023-05-02T10:31:29.469Z,98706.16
2023-05-02T10:33:32.599Z,98701.31
2023-05-02T10:35:37.641Z,98709.84
2023-05-02T10:37:42.058Z,98705.72
2023-05-02T10:39:45.061Z,98696.63
2023-05-02T10:41:48.820Z,98692.59
2023-05-02T10:43:52.219Z,98692.59
2023-05-02T10:45:55.935Z,98685.13
2023-05-02T10:48:14.588Z,98684.59
2023-05-02T10:50:17.996Z,98678.81
2023-05-02T10:52:29.107Z,98675.72
2023-05-02T10:54:32.165Z,98667.94
2023-05-02T10:56:35.228Z,98667.81
2023-05-02T10:58:38.524Z,98663.50
2023-05-02T11:00:41.628Z,98664.47
2023-05-02T11:02:51.666Z,98663.78
2023-05-02T11:05:05.290Z,98657.41
2023-05-02T11:07:19.294Z,98660.72
2023-05-02T11:09:37.062Z,98660.59
2023-05-02T11:11:41.909Z,98654.06
2023-05-02T11:13:51.019Z,98664.09
2023-05-02T11:16:00.132Z,98656.44
2023-05-02T11:18:03.578Z,98655.28
2023-05-02T11:20:24.814Z,98661.31
2023-05-02T11:22:34.517Z,98663.81
2023-05-02T11:24:43.841Z,98658.50
2023-05-02T11:26:46.887Z,98659.88
2023-05-02T11:28:51.542Z,98659.75
2023-05-02T11:30:55.993Z,98657.38
2023-05-02T11:33:19.995Z,98652.22
2023-05-02T11:35:24.259Z,98656.56
2023-05-02T11:37:28.332Z,98659.06
2023-05-02T11:39:31.766Z,98657.09
2023-05-02T11:41:41.311Z,98657.97
2023-05-02T11:43:44.341Z,98658.63
2023-05-02T11:45:47.388Z,98654.59
2023-05-02T11:47:51.747Z,98657.97
2023-05-02T11:49:56.013Z,98650.03
2023-05-02T11:52:00.394Z,98651.53
2023-05-02T11:54:03.994Z,98650.03
2023-05-02T11:56:11.077Z,98648.19
2023-05-02T11:58:16.919Z,98647.34
2023-05-02T12:00:20.402Z,98647.34
2023-05-02T12:02:37.553Z,98652.22
2023-05-02T12:04:44.516Z,98656.78
2023-05-02T12:06:56.441Z,98653.19
2023-05-02T12:09:08.113Z,98659.59
2023-05-02T12:11:11.539Z,98653.38
2023-05-02T12:13:17.100Z,98654.75
2023-05-02T12:15:20.362Z,98664.88
2023-05-02T12:17:23.610Z,98665.44
2023-05-02T12:19:27.120Z,98663.38
2023-05-02T12:21:32.804Z,98664.91
2023-05-02T12:23:39.018Z,98666.03
2023-05-02T12:25:43.623Z,98667.38
2023-05-02T12:28:00.373Z,98671.41
2023-05-02T12:30:05.962Z,98678.38
2023-05-02T12:32:09.468Z,98670.59
2023-05-02T12:34:12.518Z,98674.91
2023-05-02T12:36:15.715Z,98672.69
2023-05-02T12:38:22.757Z,98673.41
2023-05-02T12:40:26.143Z,98677.13
2023-05-02T12:42:29.359Z,98680.59
2023-05-02T12:44:38.879Z,98689.94
2023-05-02T12:47:01.486Z,98679.38
2023-05-02T12:49:06.591Z,98683.78
2023-05-02T12:51:22.013Z,98688.84
2023-05-02T12:53:41.427Z,98683.94
2023-05-02T12:55:44.551Z,98685.53
2023-05-02T12:57:48.038Z,98682.38
2023-05-02T12:59:53.326Z,98686.13
2023-05-02T13:01:56.609Z,98687.91
2023-05-02T13:04:01.414Z,98685.72
2023-05-02T13:06:05.785Z,98694.75
2023-05-02T13:08:08.841Z,98692.72
2023-05-02T13:10:12.308Z,98691.06
2023-05-02T13:12:15.427Z,98685.25
2023-05-02T13:14:18.534Z,98693.06
2023-05-02T13:16:21.782Z,98690.97
2023-05-02T13:18:25.078Z,98690.81
2023-05-02T13:20:29.600Z,98690.25
2023-05-02T13:22:32.678Z,98683.06
2023-05-02T13:24:36.135Z,98676.25
2023-05-02T13:26:39.218Z,98676.13
2023-05-02T13:28:42.342Z,98676.38
2023-05-02T13:30:45.551Z,98669.53
2023-05-02T13:32:48.779Z,98671.03
2023-05-02T13:34:52.276Z,98670.34
2023-05-02T13:36:56.733Z,98670.09
2023-05-02T13:38:59.761Z,98664.44
2023-05-02T13:41:02.833Z,98664.16
2023-05-02T13:43:05.892Z,98660.16
2023-05-02T13:45:09.847Z,98662.00
2023-05-02T13:47:12.983Z,98663.78
2023-05-02T13:49:16.090Z,98658.50
2023-05-02T13:51:19.390Z,98663.97
2023-05-02T13:53:23.816Z,98656.06
2023-05-02T13:55:26.946Z,98662.00
2023-05-02T13:57:29.952Z,98655.72
2023-05-02T13:59:33.008Z,98649.78
2023-05-02T14:01:36.390Z,98652.00
2023-05-02T14:03:39.526Z,98655.66
2023-05-02T14:05:43.765Z,98653.97
2023-05-02T14:07:47.176Z,98654.97
2023-05-02T14:09:51.784Z,98647.34
2023-05-02T14:11:55.534Z,98643.00
2023-05-02T14:13:59.770Z,98638.19
2023-05-02T14:16:02.927Z,98642.38
2023-05-02T14:18:06.228Z,98639.19
2023-05-02T14:20:10.730Z,98647.25
2023-05-02T14:22:13.889Z,98642.38
2023-05-02T14:24:18.374Z,98643.50
2023-05-02T14:26:23.050Z,98644.59
2023-05-02T14:28:27.162Z,98647.25
2023-05-02T14:30:31.352Z,98642.78
2023-05-02T14:32:34.359Z,98640.41
2023-05-02T14:34:37.876Z,98645.72
2023-05-02T14:36:41.146Z,98640.81
2023-05-02T14:38:44.204Z,98646.38
2023-05-02T14:40:47.292Z,98649.44
2023-05-02T14:42:51.932Z,98645.53
2023-05-02T14:44:56.046Z,98655.66
2023-05-02T14:47:00.018Z,98657.59
2023-05-02T14:49:03.232Z,98659.28
2023-05-02T14:51:07.129Z,98650.78
2023-05-02T14:53:10.381Z,98651.75
2023-05-02T14:55:13.820Z,98657.34
2023-05-02T14:57:17.043Z,98652.91
2023-05-02T14:59:21.521Z,98661.78
2023-05-02T15:01:24.735Z,98660.09
2023-05-02T15:03:28.187Z,98672.66
2023-05-02T15:05:31.583Z,98664.31
2023-05-02T15:07:34.746Z,98657.38
2023-05-02T15:09:38.080Z,98667.38
2023-05-02T15:11:41.217Z,98655.28
2023-05-02T15:13:44.324Z,98664.19
2023-05-02T15:15:49.279Z,98659.19
2023-05-02T15:17:52.878Z,98666.28
2023-05-02T15:19:58.273Z,98675.19
2023-05-02T15:22:01.712Z,98662.63
2023-05-02T15:24:06.112Z,98673.75
2023-05-02T15:26:09.211Z,98666.41
2023-05-02T15:28:12.233Z,98672.66
2023-05-02T15:30:17.760Z,98672.66
2023-05-02T15:32:22.733Z,98673.63
2023-05-02T15:34:25.894Z,98670.00
2023-05-02T15:36:30.034Z,98664.72
2023-05-02T15:38:34.634Z,98666.97
2023-05-02T15:40:37.894Z,98674.03
2023-05-02T15:42:41.617Z,98672.41
2023-05-02T15:44:44.721Z,98668.22
2023-05-02T15:46:47.970Z,98668.34
2023-05-02T15:48:52.582Z,98673.38
2023-05-02T15:50:55.733Z,98680.47
2023-05-02T15:52:58.840Z,98674.09
2023-05-02T15:55:02.158Z,98677.97
2023-05-02T15:57:05.204Z,98685.22
2023-05-02T15:59:08.467Z,98682.72
2023-05-02T16:01:11.667Z,98674.34
2023-05-02T16:03:15.384Z,98680.78
2023-05-02T16:05:20.030Z,98677.13
2023-05-02T16:07:23.089Z,98678.81
2023-05-02T16:09:26.151Z,98683.69
2023-05-02T16:11:29.209Z,98688.28
2023-05-02T16:13:32.257Z,98687.31
2023-05-02T16:15:35.301Z,98686.75
2023-05-02T16:17:38.466Z,98684.50
2023-05-02T16:19:41.559Z,98673.53
2023-05-02T16:21:46.038Z,98685.88
2023-05-02T16:23:49.103Z,98677.00
2023-05-02T16:25:58.143Z,98677.28
2023-05-02T16:28:01.331Z,98681.31
2023-05-02T16:30:05.106Z,98677.28
2023-05-02T16:32:08.611Z,98681.84
2023-05-02T16:34:11.788Z,98688.41
2023-05-02T16:36:15.758Z,98685.34
2023-05-02T16:38:20.129Z,98685.22
2023-05-02T16:40:23.381Z,98688.81
2023-05-02T16:42:26.507Z,98693.28
2023-05-02T16:44:30.376Z,98686.31
2023-05-02T16:46:33.614Z,98690.22
2023-05-02T16:48:36.804Z,98689.66
2023-05-02T16:50:39.889Z,98685.50
2023-05-02T16:52:44.451Z,98680.91
2023-05-02T16:54:48.901Z,98683.53
2023-05-02T16:56:52.109Z,98678.25
2023-05-02T16:58:55.508Z,98680.75
2023-05-02T17:01:00.373Z,98688.53
2023-05-02T17:03:05.239Z,98684.09
2023-05-02T17:05:11.344Z,98685.09
2023-05-02T17:07:14.536Z,98681.59
2023-05-02T17:09:18.529Z,98679.06
2023-05-02T17:11:24.864Z,98683.81
2023-05-02T17:13:28.014Z,98685.63
2023-05-02T17:15:31.325Z,98682.28
2023-05-02T17:17:34.588Z,98684.22
2023-05-02T17:19:38.500Z,98687.97
2023-05-02T17:21:41.619Z,98686.59
2023-05-02T17:23:44.680Z,98687.44
2023-05-02T17:25:48.363Z,98685.75
2023-05-02T17:27:52.972Z,98694.22
2023-05-02T17:29:56.067Z,98690.47
2023-05-02T17:32:00.596Z,98697.00
2023-05-02T17:34:03.677Z,98690.28
2023-05-02T17:36:07.062Z,98695.97
2023-05-02T17:38:10.084Z,98695.41
2023-05-02T17:40:13.953Z,98700.00
2023-05-02T17:42:16.987Z,98700.94
2023-05-02T17:44:21.861Z,98703.03
2023-05-02T17:46:25.084Z,98705.69
2023-05-02T17:48:28.266Z,98702.19
2023-05-02T17:50:32.916Z,98709.28
2023-05-02T17:52:36.240Z,98705.94
2023-05-02T17:54:39.321Z,98705.41
2023-05-02T17:56:42.641Z,98713.13
2023-05-02T17:58:45.890Z,98717.03
2023-05-02T18:00:51.314Z,98712.56
2023-05-02T18:02:54.593Z,98717.03
2023-05-02T18:05:00.499Z,98723.78
2023-05-02T18:07:05.735Z,98710.03
2023-05-02T18:09:09.337Z,98726.13
2023-05-02T18:11:17.106Z,98728.44
2023-05-02T18:13:20.318Z,98729.00
2023-05-02T18:15:23.576Z,98731.31
2023-05-02T18:17:28.581Z,98740.84
2023-05-02T18:19:31.800Z,98730.75
2023-05-02T18:21:37.491Z,98737.44
2023-05-02T18:23:41.412Z,98743.47
2023-05-02T18:25:44.543Z,98743.88
2023-05-02T18:27:47.602Z,98745.50
2023-05-02T18:29:50.676Z,98744.56
2023-05-02T18:31:54.249Z,98757.28
2023-05-02T18:33:59.000Z,98754.22
2023-05-02T18:36:02.127Z,98762.13
2023-05-02T18:38:07.978Z,98767.66
2023-05-02T18:40:12.552Z,98765.72
2023-05-02T18:42:16.796Z,98762.88
2023-05-02T18:44:19.900Z,98767.31
2023-05-02T18:46:23.125Z,98766.00
2023-05-02T18:48:26.760Z,98768.28
2023-05-02T18:50:31.702Z,98779.31
2023-05-02T18:52:36.141Z,98767.69
2023-05-02T18:54:39.458Z,98771.41
2023-05-02T18:56:43.140Z,98772.72
2023-05-02T18:58:46.607Z,98777.88
2023-05-02T19:00:49.702Z,98778.69
2023-05-02T19:02:54.031Z,98783.25
2023-05-02T19:04:57.469Z,98782.31
2023-05-02T19:07:01.991Z,98788.28
2023-05-02T19:09:05.377Z,98789.84
2023-05-02T19:11:09.218Z,98789.97
2023-05-02T19:13:12.479Z,98788.03
2023-05-02T19:15:15.656Z,98796.75
2023-05-02T19:17:18.691Z,98797.00
2023-05-02T19:19:21.863Z,98796.63
2023-05-02T19:21:25.199Z,98792.19
2023-05-02T19:23:29.628Z,98802.38
2023-05-02T19:25:32.827Z,98809.56
2023-05-02T19:27:36.072Z,98803.06
2023-05-02T19:29:39.122Z,98807.75
2023-05-02T19:31:43.765Z,98805.22
2023-05-02T19:33:52.057Z,98805.56
2023-05-02T19:35:56.447Z,98817.00
2023-05-02T19:37:59.786Z,98815.66
2023-05-02T19:40:05.075Z,98812.75
2023-05-02T19:42:08.214Z,98811.41
2023-05-02T19:44:11.258Z,98827.53
2023-05-02T19:46:15.787Z,98820.09
2023-05-02T19:48:18.992Z,98828.31
2023-05-02T19:50:22.226Z,98836.88
2023-05-02T19:52:25.522Z,98834.84
2023-05-02T19:54:28.837Z,98828.56
2023-05-02T19:56:33.256Z,98830.06
2023-05-02T19:58:36.467Z,98826.72
2023-05-02T20:00:41.266Z,98834.81
2023-05-02T20:02:44.517Z,98831.91
2023-05-02T20:04:47.870Z,98834.66
2023-05-02T20:06:51.439Z,98840.81
2023-05-02T20:08:54.652Z,98837.72
2023-05-02T20:10:57.920Z,98844.22
2023-05-02T20:13:02.474Z,98838.78
2023-05-02T20:15:06.977Z,98833.88
2023-05-02T20:17:10.209Z,98842.69
2023-05-02T20:19:13.490Z,98840.16
2023-05-02T20:21:17.141Z,98843.97
2023-05-02T20:23:20.306Z,98850.97
2023-05-02T20:25:23.985Z,98855.72
2023-05-02T20:27:27.098Z,98855.50
2023-05-02T20:29:31.617Z,98857.09
2023-05-02T20:31:34.822Z,98864.00
2023-05-02T20:33:45.300Z,98864.97
2023-05-02T20:35:55.020Z,98863.16
2023-05-02T20:37:58.257Z,98871.66
2023-05-02T20:40:02.339Z,98874.28
2023-05-02T20:42:06.652Z,98878.16
2023-05-02T20:44:09.722Z,98881.59
2023-05-02T20:46:16.321Z,98881.28
2023-05-02T20:48:19.971Z,98883.69
2023-05-02T20:50:23.402Z,98880.56
2023-05-02T20:52:26.921Z,98873.72
2023-05-02T20:54:30.181Z,98884.13
2023-05-02T20:56:33.288Z,98873.31
2023-05-02T20:58:36.354Z,98873.19
2023-05-02T21:00:40.762Z,98872.25
2023-05-02T21:02:45.190Z,98879.09
2023-05-02T21:04:48.358Z,98875.38
2023-05-02T21:06:53.145Z,98877.78
2023-05-02T21:09:00.342Z,98880.31
2023-05-02T21:11:06.108Z,98881.16
2023-05-02T21:13:09.284Z,98874.56
2023-05-02T21:15:14.341Z,98869.19
2023-05-02T21:17:17.506Z,98875.16
2023-05-02T21:19:22.011Z,98874.34
2023-05-02T21:21:25.084Z,98877.28
2023-05-02T21:23:28.036Z,98870.34
2023-05-02T21:25:31.132Z,98875.59
2023-05-02T21:27:34.284Z,98869.56
2023-05-02T21:29:37.377Z,98869.78
2023-05-02T21:31:40.568Z,98876.06
2023-05-02T21:33:43.755Z,98874.47
2023-05-02T21:35:48.322Z,98884.88
2023-05-02T21:37:51.433Z,98881.53
2023-05-02T21:39:54.512Z,98880.91
2023-05-02T21:41:57.549Z,98882.56
2023-05-02T21:44:00.634Z,98871.34
2023-05-02T21:46:03.801Z,98885.59
2023-05-02T21:48:07.003Z,98872.06
2023-05-02T21:50:10.548Z,98874.69
2023-05-02T21:52:14.969Z,98865.28
2023-05-02T21:54:18.171Z,98871.22
2023-05-02T21:56:21.504Z,98863.59
2023-05-02T21:58:24.674Z,98866.00
2023-05-02T22:00:28.099Z,98876.38
2023-05-02T22:02:31.275Z,98873.22
2023-05-02T22:04:34.455Z,98865.47
2023-05-02T22:06:37.658Z,98868.94
2023-05-02T22:08:42.351Z,98871.56
2023-05-02T22:10:45.418Z,98873.53
2023-05-02T22:12:48.533Z,98872.41
2023-05-02T22:14:51.545Z,98871.88
2023-05-02T22:16:57.675Z,98879.75
2023-05-02T22:19:01.222Z,98877.13
2023-05-02T22:21:04.727Z,98877.34
2023-05-02T22:23:07.965Z,98874.91
2023-05-02T22:25:12.592Z,98883.09
2023-05-02T22:27:15.674Z,98886.34
2023-05-02T22:29:18.707Z,98886.63
2023-05-02T22:31:21.755Z,98882.00
2023-05-02T22:33:25.016Z,98888.47
2023-05-02T22:35:28.342Z,98890.56
2023-05-02T22:37:31.376Z,98889.09
2023-05-02T22:39:34.437Z,98894.44
2023-05-02T22:41:38.794Z,98886.97
2023-05-02T22:43:41.949Z,98894.94
2023-05-02T22:45:45.221Z,98889.69
2023-05-02T22:47:48.308Z,98888.03
2023-05-02T22:49:54.358Z,98887.94
2023-05-02T22:51:57.998Z,98889.78
2023-05-02T22:54:01.925Z,98892.41
2023-05-02T22:56:05.393Z,98897.84
2023-05-02T22:58:09.780Z,98893.00
2023-05-02T23:00:13.999Z,98891.22
2023-05-02T23:02:17.343Z,98888.84
2023-05-02T23:04:21.317Z,98888.19
2023-05-02T23:06:24.512Z,98887.66
2023-05-02T23:08:27.632Z,98885.09
2023-05-02T23:10:30.786Z,98882.41
2023-05-02T23:12:33.840Z,98885.22
2023-05-02T23:14:38.293Z,98886.78
2023-05-02T23:16:41.382Z,98887.75
2023-05-02T23:18:44.360Z,98892.88
2023-05-02T23:20:47.380Z,98892.56
2023-05-02T23:22:51.273Z,98897.41
2023-05-02T23:24:54.301Z,98901.53
2023-05-02T23:26:57.797Z,98906.38
2023-05-02T23:29:00.826Z,98900.00
2023-05-02T23:31:05.662Z,98898.84
2023-05-02T23:33:08.858Z,98910.28
2023-05-02T23:35:12.377Z,98901.38
2023-05-02T23:37:15.492Z,98905.50
2023-05-02T23:39:18.535Z,98912.25
2023-05-02T23:41:22.207Z,98910.38
2023-05-02T23:43:25.329Z,98917.06
2023-05-02T23:45:28.554Z,98918.66
2023-05-02T23:47:32.990Z,98920.34
2023-05-02T23:49:37.235Z,98910.81
2023-05-02T23:51:40.526Z,98915.94
2023-05-02T23:53:43.601Z,98914.06
2023-05-02T23:55:46.766Z,98919.19
2023-05-02T23:57:49.786Z,98924.13
2023-05-02T23:59:53.392Z,98927.63
